createdAt,value
2019-01-15T00:02:19.918Z,3.55
2019-01-15T00:04:49.436Z,3.60
2019-01-15T00:07:19.076Z,3.63
2019-01-15T00:09:48.959Z,3.64
2019-01-15T00:12:18.479Z,3.62
2019-01-15T00:14:48.364Z,3.68
2019-01-15T00:17:17.886Z,3.67
2019-01-15T00:19:47.760Z,3.68
2019-01-15T00:22:17.282Z,3.65
2019-01-15T00:24:46.693Z,3.66
2019-01-15T00:27:16.084Z,3.68
2019-01-15T00:29:45.966Z,3.69
2019-01-15T00:32:43.085Z,3.67
2019-01-15T00:35:12.487Z,3.67
2019-01-15T00:37:41.891Z,3.66
2019-01-15T00:40:16.569Z,3.71
2019-01-15T00:42:46.099Z,3.67
2019-01-15T00:45:15.858Z,3.69
2019-01-15T00:47:45.372Z,3.69
2019-01-15T00:50:15.497Z,3.66
2019-01-15T00:52:45.255Z,3.68
2019-01-15T00:55:15.381Z,3.63
2019-01-15T00:57:52.457Z,3.55
2019-01-15T01:00:22.942Z,3.55
2019-01-15T01:02:52.700Z,3.52
2019-01-15T01:05:22.100Z,3.58
2019-01-15T01:07:51.382Z,3.53
2019-01-15T01:10:22.140Z,3.49
2019-01-15T01:12:52.964Z,3.49
2019-01-15T01:15:23.685Z,3.54
2019-01-15T01:17:54.405Z,3.49
2019-01-15T01:20:25.367Z,3.46
2019-01-15T01:22:55.971Z,3.50
2019-01-15T01:25:26.452Z,3.47
2019-01-15T01:27:57.289Z,3.48
2019-01-15T01:30:27.903Z,3.49
2019-01-15T01:32:58.250Z,3.50
2019-01-15T01:35:28.728Z,3.54
2019-01-15T01:37:59.088Z,3.50
2019-01-15T01:40:29.570Z,3.54
2019-01-15T01:42:59.928Z,3.52
2019-01-15T01:45:30.288Z,3.57
2019-01-15T01:48:00.650Z,3.55
2019-01-15T01:50:31.009Z,3.57
2019-01-15T01:53:01.369Z,3.54
2019-01-15T01:55:31.489Z,3.57
2019-01-15T01:58:00.559Z,3.54
2019-01-15T02:00:30.088Z,3.58
2019-01-15T02:02:59.622Z,3.62
2019-01-15T02:05:28.904Z,3.55
2019-01-15T02:07:58.364Z,3.60
2019-01-15T02:10:39.794Z,3.57
2019-01-15T02:13:21.240Z,3.61
2019-01-15T02:15:51.232Z,3.60
2019-01-15T02:18:56.993Z,3.63
2019-01-15T02:21:27.115Z,3.57
2019-01-15T02:23:56.756Z,3.51
2019-01-15T02:26:26.758Z,3.55
2019-01-15T02:28:56.397Z,3.56
2019-01-15T02:31:25.989Z,3.57
2019-01-15T02:33:55.750Z,3.55
2019-01-15T02:36:26.481Z,3.55
2019-01-15T02:38:57.645Z,3.47
2019-01-15T02:41:27.078Z,3.55
2019-01-15T02:43:56.901Z,3.59
2019-01-15T02:46:26.305Z,3.57
2019-01-15T02:48:55.944Z,3.49
2019-01-15T02:51:26.681Z,3.54
2019-01-15T02:53:58.872Z,3.54
2019-01-15T02:56:29.200Z,3.52
2019-01-15T02:58:59.562Z,3.56
2019-01-15T03:01:29.804Z,3.52
2019-01-15T03:04:00.296Z,3.53
2019-01-15T03:06:30.648Z,3.51
2019-01-15T03:09:01.003Z,3.58
2019-01-15T03:11:31.241Z,3.54
2019-01-15T03:14:01.244Z,3.55
2019-01-15T03:16:31.363Z,3.59
2019-01-15T03:19:01.720Z,3.59
2019-01-15T03:21:31.721Z,3.61
2019-01-15T03:24:01.725Z,3.64
2019-01-15T03:26:32.085Z,3.66
2019-01-15T03:29:02.206Z,3.65
2019-01-15T03:31:32.090Z,3.68
2019-01-15T03:34:01.728Z,3.69
2019-01-15T03:36:31.609Z,3.63
2019-01-15T03:39:01.488Z,3.61
2019-01-15T03:41:31.246Z,3.60
2019-01-15T03:44:01.007Z,3.63
2019-01-15T03:46:31.008Z,3.61
2019-01-15T03:49:06.769Z,3.60
2019-01-15T03:51:37.011Z,3.61
2019-01-15T03:54:06.653Z,3.60
2019-01-15T03:56:36.538Z,3.60
2019-01-15T03:59:06.303Z,3.65
2019-01-15T04:01:35.935Z,3.65
2019-01-15T04:04:05.587Z,3.63
2019-01-15T04:06:35.577Z,3.66
2019-01-15T04:09:07.509Z,3.59
2019-01-15T04:11:37.509Z,3.59
2019-01-15T04:14:07.627Z,3.55
2019-01-15T04:16:37.383Z,3.53
2019-01-15T04:19:07.399Z,3.53
2019-01-15T04:21:36.215Z,3.45
2019-01-15T04:24:05.391Z,3.47
2019-01-15T04:26:34.751Z,3.51
2019-01-15T04:29:04.392Z,3.48
2019-01-15T04:31:33.671Z,3.47
2019-01-15T04:34:03.078Z,3.51
2019-01-15T04:36:32.352Z,3.44
2019-01-15T04:39:01.994Z,3.48
2019-01-15T04:41:31.516Z,3.53
2019-01-15T04:44:01.040Z,3.53
2019-01-15T04:46:30.437Z,3.52
2019-01-15T04:48:59.726Z,3.55
2019-01-15T04:51:29.239Z,3.56
2019-01-15T04:53:59.858Z,3.56
2019-01-15T04:56:29.603Z,3.54
2019-01-15T04:58:59.375Z,3.57
2019-01-15T05:01:28.647Z,3.53
2019-01-15T05:03:58.286Z,3.54
2019-01-15T05:06:27.929Z,3.55
2019-01-15T05:08:58.049Z,3.53
2019-01-15T05:11:29.856Z,3.53
2019-01-15T05:14:00.094Z,3.55
2019-01-15T05:16:30.105Z,3.56
2019-01-15T05:19:00.213Z,3.53
2019-01-15T05:21:30.102Z,3.59
2019-01-15T05:24:00.095Z,3.59
2019-01-15T05:26:30.336Z,3.56
2019-01-15T05:29:00.824Z,3.55
2019-01-15T05:31:30.698Z,3.52
2019-01-15T05:34:00.939Z,3.52
2019-01-15T05:36:31.335Z,3.45
2019-01-15T05:39:01.452Z,3.50
2019-01-15T05:41:31.452Z,3.41
2019-01-15T05:44:01.453Z,3.43
2019-01-15T05:46:31.699Z,3.47
2019-01-15T05:49:01.938Z,3.43
2019-01-15T05:51:40.586Z,3.36
2019-01-15T05:54:14.401Z,3.41
2019-01-15T05:56:46.292Z,3.43
2019-01-15T05:59:17.056Z,3.36
2019-01-15T06:01:47.895Z,3.42
2019-01-15T06:04:18.612Z,3.38
2019-01-15T06:06:49.696Z,3.37
2019-01-15T06:09:20.534Z,3.37
2019-01-15T06:11:51.495Z,3.31
2019-01-15T06:14:22.694Z,3.32
2019-01-15T06:16:53.536Z,3.30
2019-01-15T06:19:24.136Z,3.30
2019-01-15T06:21:54.499Z,3.35
2019-01-15T06:24:24.982Z,3.38
2019-01-15T06:26:55.335Z,3.28
2019-01-15T06:29:25.820Z,3.34
2019-01-15T06:31:56.722Z,3.34
2019-01-15T06:34:27.278Z,3.35
2019-01-15T06:36:58.216Z,3.40
2019-01-15T06:39:30.018Z,3.36
2019-01-15T06:42:00.621Z,3.44
2019-01-15T06:45:25.852Z,3.48
2019-01-15T06:47:54.757Z,3.36
2019-01-15T06:50:27.597Z,3.36
2019-01-15T06:52:56.503Z,3.41
2019-01-15T06:55:25.425Z,3.37
2019-01-15T06:57:54.318Z,3.44
2019-01-15T07:00:25.164Z,3.44
2019-01-15T07:02:53.991Z,3.52
2019-01-15T07:05:22.942Z,3.45
2019-01-15T07:07:52.003Z,3.45
2019-01-15T07:10:26.593Z,3.50
2019-01-15T07:12:55.576Z,3.55
2019-01-15T07:15:24.415Z,3.56
2019-01-15T07:17:53.545Z,3.60
2019-01-15T07:20:22.500Z,3.65
2019-01-15T07:22:51.599Z,3.67
2019-01-15T07:25:20.999Z,3.69
2019-01-15T07:27:49.930Z,3.70
2019-01-15T07:30:21.531Z,3.77
2019-01-15T07:32:50.494Z,3.83
2019-01-15T07:35:19.542Z,3.80
2019-01-15T07:37:48.462Z,3.81
2019-01-15T07:40:17.371Z,3.86
2019-01-15T07:42:46.440Z,3.90
2019-01-15T07:45:16.170Z,3.91
2019-01-15T07:47:45.518Z,3.97
2019-01-15T07:50:16.334Z,4.02
2019-01-15T07:52:45.369Z,4.07
2019-01-15T07:55:15.692Z,4.05
2019-01-15T07:57:44.659Z,4.07
2019-01-15T08:00:16.588Z,4.09
2019-01-15T08:02:45.762Z,4.10
2019-01-15T08:05:15.609Z,4.08
2019-01-15T08:07:44.599Z,4.09
2019-01-15T08:10:14.772Z,4.12
2019-01-15T08:12:43.879Z,4.17
2019-01-15T08:15:18.753Z,4.14
2019-01-15T08:17:47.666Z,4.16
2019-01-15T08:20:16.537Z,4.18
2019-01-15T08:22:45.480Z,4.24
2019-01-15T08:25:14.584Z,4.24
2019-01-15T08:27:43.737Z,4.26
2019-01-15T08:30:15.922Z,4.29
2019-01-15T08:32:44.706Z,4.30
2019-01-15T08:35:14.198Z,4.32
2019-01-15T08:37:43.082Z,4.33
2019-01-15T08:40:12.794Z,4.38
2019-01-15T08:42:42.190Z,4.37
2019-01-15T08:45:11.400Z,4.41
2019-01-15T08:47:51.684Z,4.43
2019-01-15T08:50:23.086Z,4.44
2019-01-15T08:52:51.987Z,4.54
2019-01-15T08:55:21.043Z,4.58
2019-01-15T08:57:50.224Z,4.60
2019-01-15T09:00:20.065Z,4.70
2019-01-15T09:09:45.801Z,4.80
2019-01-15T09:12:14.725Z,4.83
2019-01-15T09:14:43.609Z,4.86
2019-01-15T09:17:12.526Z,4.85
2019-01-15T09:19:41.315Z,4.87
2019-01-15T09:22:10.219Z,4.81
2019-01-15T09:24:39.821Z,4.83
2019-01-15T09:27:08.680Z,4.79
2019-01-15T09:29:37.530Z,4.82
2019-01-15T09:32:06.432Z,4.82
2019-01-15T09:34:37.503Z,4.81
2019-01-15T09:37:08.004Z,4.81
2019-01-15T09:39:36.832Z,4.82
2019-01-15T09:42:06.178Z,4.86
2019-01-15T09:44:35.159Z,4.85
2019-01-15T09:47:04.240Z,4.90
2019-01-15T09:49:33.228Z,4.90
2019-01-15T09:52:02.525Z,4.93
2019-01-15T09:54:31.530Z,4.97
2019-01-15T09:57:03.100Z,4.99
2019-01-15T09:59:32.200Z,5.01
2019-01-15T10:02:01.159Z,5.01
2019-01-15T10:04:30.492Z,5.04
2019-01-15T10:06:59.392Z,5.05
2019-01-15T10:09:28.268Z,5.08
2019-01-15T10:11:57.448Z,5.11
2019-01-15T10:14:26.713Z,5.13
2019-01-15T10:16:55.843Z,5.15
2019-01-15T10:19:24.899Z,5.15
2019-01-15T10:21:54.260Z,5.17
2019-01-15T10:24:23.466Z,5.18
2019-01-15T10:26:52.830Z,5.18
2019-01-15T10:29:23.250Z,5.21
2019-01-15T10:32:41.165Z,5.23
2019-01-15T10:35:15.274Z,5.23
2019-01-15T10:37:44.072Z,5.24
2019-01-15T10:40:12.987Z,5.26
2019-01-15T10:42:41.785Z,5.27
2019-01-15T10:45:10.922Z,5.30
2019-01-15T10:47:39.865Z,5.30
2019-01-15T10:50:09.382Z,5.30
2019-01-15T10:52:40.584Z,5.32
2019-01-15T10:55:09.580Z,5.36
2019-01-15T10:57:38.596Z,5.37
2019-01-15T11:00:09.177Z,5.40
2019-01-15T11:02:38.057Z,5.40
2019-01-15T11:05:08.189Z,5.40
2019-01-15T11:07:37.022Z,5.44
2019-01-15T11:10:07.277Z,5.45
2019-01-15T11:12:36.060Z,5.47
2019-01-15T11:15:06.499Z,5.51
2019-01-15T11:17:35.654Z,5.53
2019-01-15T11:20:06.386Z,5.54
2019-01-15T11:22:35.376Z,5.55
2019-01-15T11:25:05.836Z,5.57
2019-01-15T11:27:35.019Z,5.56
2019-01-15T11:30:05.335Z,5.58
2019-01-15T11:32:34.173Z,5.61
2019-01-15T11:35:02.996Z,5.61
2019-01-15T11:37:32.346Z,5.65
2019-01-15T11:40:02.183Z,5.66
2019-01-15T11:42:31.406Z,5.68
2019-01-15T11:45:03.564Z,5.72
2019-01-15T11:47:31.099Z,5.73
2019-01-15T11:50:00.296Z,5.74
2019-01-15T11:52:29.121Z,5.76
2019-01-15T11:54:58.467Z,5.75
2019-01-15T11:57:27.293Z,5.79
2019-01-15T11:59:56.121Z,5.79
2019-01-15T12:02:43.823Z,5.81
2019-01-15T12:05:22.498Z,5.74
2019-01-15T12:08:23.006Z,5.81
2019-01-15T12:11:09.986Z,5.81
2019-01-15T12:13:52.878Z,5.82
2019-01-15T12:16:59.450Z,5.84
2019-01-15T12:19:43.829Z,5.83
2019-01-15T12:22:27.727Z,5.86
2019-01-15T12:25:14.277Z,5.89
2019-01-15T12:27:56.382Z,5.89
2019-01-15T12:30:46.131Z,5.91
2019-01-15T12:33:32.741Z,5.95
2019-01-15T12:36:20.301Z,5.95
2019-01-15T12:39:07.141Z,5.96
2019-01-15T12:41:53.955Z,5.98
2019-01-15T12:44:43.525Z,5.99
2019-01-15T12:47:30.798Z,6.00
2019-01-15T12:50:17.373Z,6.03
2019-01-15T12:53:04.155Z,6.02
2019-01-15T12:55:55.145Z,6.04
2019-01-15T12:59:18.252Z,6.02
2019-01-15T13:02:00.134Z,6.03
2019-01-15T13:04:51.478Z,6.04
2019-01-15T13:07:33.309Z,6.03
2019-01-15T13:10:30.377Z,6.05
2019-01-15T13:13:21.601Z,6.04
2019-01-15T13:16:09.269Z,6.04
2019-01-15T13:18:57.824Z,6.07
2019-01-15T13:21:49.462Z,6.09
2019-01-15T13:24:31.758Z,6.09
2019-01-15T13:27:18.912Z,6.10
2019-01-15T13:30:03.928Z,6.10
2019-01-15T13:32:43.911Z,6.11
2019-01-15T13:35:41.084Z,6.12
2019-01-15T13:38:27.475Z,6.15
2019-01-15T13:41:12.126Z,6.17
2019-01-15T13:44:09.296Z,6.17
2019-01-15T13:47:09.083Z,6.18
2019-01-15T13:49:55.574Z,6.18
2019-01-15T13:52:55.613Z,6.21
2019-01-15T13:55:46.598Z,6.22
2019-01-15T13:58:29.572Z,6.22
2019-01-15T14:01:29.736Z,6.25
2019-01-15T14:04:17.053Z,6.29
2019-01-15T14:07:05.629Z,6.22
2019-01-15T14:09:53.057Z,6.32
2019-01-15T14:12:39.131Z,6.31
2019-01-15T14:15:31.034Z,6.33
2019-01-15T14:18:22.224Z,6.32
2019-01-15T14:21:15.131Z,6.34
2019-01-15T14:24:00.366Z,6.35
2019-01-15T14:26:40.436Z,6.38
2019-01-15T14:29:32.166Z,6.38
2019-01-15T14:32:19.331Z,6.37
2019-01-15T14:35:06.839Z,6.38
2019-01-15T14:37:54.370Z,6.38
2019-01-15T14:40:41.403Z,6.39
2019-01-15T14:43:29.051Z,6.38
2019-01-15T14:46:16.685Z,6.38
2019-01-15T14:49:17.288Z,6.36
2019-01-15T14:52:18.128Z,6.40
2019-01-15T14:55:05.410Z,6.41
2019-01-15T14:57:53.772Z,6.43
2019-01-15T15:01:14.053Z,6.42
2019-01-15T15:04:01.332Z,6.42
2019-01-15T15:06:48.737Z,6.46
2019-01-15T15:09:46.336Z,6.47
2019-01-15T15:12:37.936Z,6.45
2019-01-15T15:15:29.306Z,6.44
2019-01-15T15:18:07.705Z,6.46
2019-01-15T15:20:54.980Z,6.44
2019-01-15T15:23:47.183Z,6.46
2019-01-15T15:26:53.782Z,6.47
2019-01-15T15:29:48.025Z,6.48
2019-01-15T15:32:45.865Z,6.50
2019-01-15T15:35:34.946Z,6.49
2019-01-15T15:38:29.668Z,6.48
2019-01-15T15:41:22.230Z,6.48
2019-01-15T15:44:06.029Z,6.51
2019-01-15T15:46:43.711Z,6.50
2019-01-15T15:49:25.522Z,6.51
2019-01-15T15:52:09.993Z,6.54
2019-01-15T15:55:10.876Z,6.53
2019-01-15T15:58:01.235Z,6.52
2019-01-15T16:01:01.598Z,6.56
2019-01-15T16:03:49.144Z,6.57
2019-01-15T16:06:27.521Z,6.57
2019-01-15T16:09:14.920Z,6.57
2019-01-15T16:12:00.880Z,6.59
2019-01-15T16:14:45.214Z,6.60
2019-01-15T16:20:34.845Z,6.64
2019-01-15T16:23:26.020Z,6.63
2019-01-15T16:28:53.091Z,6.70
2019-01-15T16:31:45.290Z,6.67
2019-01-15T16:34:43.970Z,6.67
2019-01-15T16:37:22.851Z,6.69
2019-01-15T16:40:09.893Z,6.70
2019-01-15T16:42:57.532Z,6.70
2019-01-15T16:46:02.334Z,6.72
2019-01-15T16:55:11.579Z,6.76
2019-01-15T16:58:11.699Z,6.77
2019-01-15T17:01:19.144Z,6.77
2019-01-15T17:04:13.742Z,6.76
2019-01-15T17:07:05.346Z,6.77
2019-01-15T17:09:52.867Z,6.75
2019-01-15T17:12:54.069Z,6.79
2019-01-15T17:15:50.348Z,6.78
2019-01-15T17:18:26.591Z,6.80
2019-01-15T17:21:15.309Z,6.82
2019-01-15T17:24:13.034Z,6.81
2019-01-15T17:27:11.237Z,6.84
2019-01-15T17:29:51.835Z,6.83
2019-01-15T17:32:30.193Z,6.83
2019-01-15T17:35:19.158Z,6.84
2019-01-15T17:38:08.117Z,6.86
2019-01-15T17:40:50.718Z,6.85
2019-01-15T17:43:51.800Z,6.87
2019-01-15T17:46:28.880Z,6.86
2019-01-15T17:49:11.123Z,6.82
2019-01-15T17:51:59.176Z,6.89
2019-01-15T17:54:47.278Z,6.87
2019-01-15T17:57:42.241Z,6.86
2019-01-15T18:00:34.918Z,6.86
2019-01-15T18:03:28.077Z,6.86
2019-01-15T18:06:16.555Z,6.86
2019-01-15T18:09:12.116Z,6.85
2019-01-15T18:12:07.450Z,6.86
2019-01-15T18:15:12.237Z,6.86
2019-01-15T18:18:04.561Z,6.87
2019-01-15T18:20:54.120Z,6.86
2019-01-15T18:23:48.358Z,6.86
2019-01-15T18:26:36.623Z,6.87
2019-01-15T18:30:00.615Z,6.87
2019-01-15T18:33:05.523Z,6.88
2019-01-15T18:36:22.922Z,6.88
2019-01-15T18:39:11.045Z,6.89
2019-01-15T18:41:58.925Z,6.91
2019-01-15T18:45:06.488Z,6.92
2019-01-15T18:48:01.679Z,6.93
2019-01-15T18:50:56.642Z,6.91
2019-01-15T18:53:44.782Z,6.91
2019-01-15T18:56:36.961Z,6.94
2019-01-15T18:59:20.641Z,6.94
2019-01-15T19:02:17.089Z,6.94
2019-01-15T19:05:06.144Z,6.95
2019-01-15T19:08:15.002Z,6.96
2019-01-15T19:11:05.174Z,6.98
2019-01-15T19:13:52.195Z,6.98
2019-01-15T19:16:40.930Z,7.00
2019-01-15T19:19:28.200Z,6.99
2019-01-15T19:22:13.337Z,6.99
2019-01-15T19:25:20.763Z,6.99
2019-01-15T19:28:15.998Z,7.00
2019-01-15T19:31:08.655Z,7.00
2019-01-15T19:33:57.614Z,7.00
2019-01-15T19:36:45.382Z,7.00
2019-01-15T19:39:39.974Z,7.00
2019-01-15T19:42:31.929Z,6.99
2019-01-15T19:45:39.251Z,6.99
2019-01-15T19:48:36.020Z,6.99
2019-01-15T19:51:32.066Z,7.02
2019-01-15T19:54:32.655Z,7.00
2019-01-15T19:57:24.272Z,7.01
2019-01-15T20:00:11.781Z,7.01
2019-01-15T20:03:06.747Z,7.02
2019-01-15T20:05:54.980Z,7.01
2019-01-15T20:08:49.096Z,7.03
2019-01-15T20:11:30.980Z,7.01
2019-01-15T20:14:22.219Z,7.01
2019-01-15T20:17:28.701Z,7.01
2019-01-15T20:20:26.062Z,7.01
2019-01-15T20:23:59.424Z,7.02
2019-01-15T20:26:54.387Z,7.02
2019-01-15T20:29:42.745Z,7.04
2019-01-15T20:32:30.990Z,7.02
2019-01-15T20:35:22.474Z,7.01
2019-01-15T20:38:18.533Z,7.01
2019-01-15T20:41:08.550Z,7.02
2019-01-15T20:43:55.472Z,7.00
2019-01-15T20:46:46.834Z,7.00
2019-01-15T20:49:36.275Z,6.99
2019-01-15T20:52:30.764Z,6.99
2019-01-15T20:55:22.596Z,6.99
2019-01-15T20:58:17.200Z,6.98
2019-01-15T21:01:03.882Z,6.98
2019-01-15T21:03:58.477Z,6.99
2019-01-15T21:06:45.639Z,7.00
2019-01-15T21:09:34.121Z,6.98
2019-01-15T21:12:32.320Z,6.99
2019-01-15T21:15:16.723Z,6.99
2019-01-15T21:18:14.205Z,6.98
2019-01-15T21:21:01.587Z,7.00
2019-01-15T21:23:56.448Z,7.00
2019-01-15T21:26:43.728Z,6.99
2019-01-15T21:29:38.331Z,7.02
2019-01-15T21:32:25.731Z,7.00
2019-01-15T21:35:20.452Z,7.02
2019-01-15T21:38:11.574Z,7.03
2019-01-15T21:47:14.336Z,7.06
2019-01-15T21:50:02.098Z,7.06
2019-01-15T21:52:47.667Z,7.06
2019-01-15T21:55:25.739Z,7.07
2019-01-15T21:58:18.420Z,7.07
2019-01-15T22:01:27.652Z,7.00
2019-01-15T22:04:14.561Z,7.07
2019-01-15T22:07:02.567Z,7.14
2019-01-15T22:10:00.780Z,7.16
2019-01-15T22:13:01.088Z,7.15
2019-01-15T22:15:50.186Z,7.15
2019-01-15T22:18:36.606Z,7.15
2019-01-15T22:21:24.073Z,7.13
2019-01-15T22:24:10.623Z,7.15
2019-01-15T22:26:52.990Z,7.14
2019-01-15T22:29:37.411Z,7.16
2019-01-15T22:32:31.823Z,7.14
2019-01-15T22:35:12.285Z,7.14
2019-01-15T22:38:06.309Z,7.10
2019-01-15T22:40:40.965Z,7.14
2019-01-15T22:43:19.653Z,7.14
2019-01-15T22:46:06.346Z,7.16
2019-01-15T22:49:02.691Z,7.13
2019-01-15T22:54:58.800Z,7.14
2019-01-15T22:58:00.086Z,7.16
2019-01-15T23:01:02.027Z,7.14
2019-01-15T23:03:50.114Z,7.14
2019-01-15T23:06:36.771Z,7.15
2019-01-15T23:09:27.195Z,7.15
2019-01-15T23:12:14.397Z,7.15
2019-01-15T23:15:12.607Z,7.08
2019-01-15T23:17:51.840Z,7.11
2019-01-15T23:20:40.107Z,7.11
2019-01-15T23:23:27.985Z,7.11
2019-01-15T23:26:14.550Z,7.12
2019-01-15T23:28:56.156Z,7.10
2019-01-15T23:32:00.103Z,7.10
2019-01-15T23:34:50.041Z,7.09
2019-01-15T23:37:36.824Z,7.05
2019-01-15T23:40:29.146Z,7.07
2019-01-15T23:43:20.148Z,7.06
2019-01-15T23:46:27.003Z,7.07
2019-01-15T23:49:15.486Z,7.02
2019-01-15T23:52:09.831Z,7.07
2019-01-15T23:55:07.202Z,7.07
2019-01-15T23:58:02.154Z,7.04
